sensor_id;sensor_type;location;lat;lon;timestamp;temperature;humidity
20714;DHT22;10518;50.742;4.226;2022-09-03T00:01:38;21.00;99.90
20714;DHT22;10518;50.742;4.226;2022-09-03T00:04:11;20.90;99.90
20714;DHT22;10518;50.742;4.226;2022-09-03T00:06:44;21.00;99.90
20714;DHT22;10518;50.742;4.226;2022-09-03T00:09:30;20.90;99.90
20714;DHT22;10518;50.742;4.226;2022-09-03T00:12:00;20.90;99.90
20714;DHT22;10518;50.742;4.226;2022-09-03T00:17:13;20.90;99.90
20714;DHT22;10518;50.742;4.226;2022-09-03T00:19:50;20.80;99.90
20714;DHT22;10518;50.742;4.226;2022-09-03T00:22:30;20.80;99.90
20714;DHT22;10518;50.742;4.226;2022-09-03T00:24:58;20.80;99.90
20714;DHT22;10518;50.742;4.226;2022-09-03T00:27:27;20.80;99.90
20714;DHT22;10518;50.742;4.226;2022-09-03T00:30:02;20.80;99.90
20714;DHT22;10518;50.742;4.226;2022-09-03T00:35:33;20.80;99.90
20714;DHT22;10518;50.742;4.226;2022-09-03T00:38:01;20.80;99.90
20714;DHT22;10518;50.742;4.226;2022-09-03T00:48:20;20.80;99.90
20714;DHT22;10518;50.742;4.226;2022-09-03T00:51:02;20.70;99.90
20714;DHT22;10518;50.742;4.226;2022-09-03T00:53:43;20.80;99.90
20714;DHT22;10518;50.742;4.226;2022-09-03T00:59:20;20.70;99.90
20714;DHT22;10518;50.742;4.226;2022-09-03T01:04:36;20.70;99.90
20714;DHT22;10518;50.742;4.226;2022-09-03T01:07:32;20.70;99.90
20714;DHT22;10518;50.742;4.226;2022-09-03T01:10:29;20.70;99.90
20714;DHT22;10518;50.742;4.226;2022-09-03T01:16:05;20.70;99.90
20714;DHT22;10518;50.742;4.226;2022-09-03T01:18:35;20.70;99.90
20714;DHT22;10518;50.742;4.226;2022-09-03T01:24:24;20.60;99.90
20714;DHT22;10518;50.742;4.226;2022-09-03T01:30:02;20.70;99.90
20714;DHT22;10518;50.742;4.226;2022-09-03T01:32:41;20.70;99.90
20714;DHT22;10518;50.742;4.226;2022-09-03T01:35:34;20.60;99.90
20714;DHT22;10518;50.742;4.226;2022-09-03T01:38:15;20.60;99.90
20714;DHT22;10518;50.742;4.226;2022-09-03T01:40:49;20.60;99.90
20714;DHT22;10518;50.742;4.226;2022-09-03T01:46:37;20.60;99.90
20714;DHT22;10518;50.742;4.226;2022-09-03T01:51:35;20.60;99.90
20714;DHT22;10518;50.742;4.226;2022-09-03T01:54:25;20.50;99.90
20714;DHT22;10518;50.742;4.226;2022-09-03T01:57:23;20.60;99.90
20714;DHT22;10518;50.742;4.226;2022-09-03T02:00:05;20.40;99.90
20714;DHT22;10518;50.742;4.226;2022-09-03T02:02:32;20.40;99.90
20714;DHT22;10518;50.742;4.226;2022-09-03T02:07:34;20.40;99.90
20714;DHT22;10518;50.742;4.226;2022-09-03T02:10:02;20.50;99.90
20714;DHT22;10518;50.742;4.226;2022-09-03T02:12:30;20.40;99.90
20714;DHT22;10518;50.742;4.226;2022-09-03T02:15:03;20.40;99.90
20714;DHT22;10518;50.742;4.226;2022-09-03T02:17:33;20.40;99.90
20714;DHT22;10518;50.742;4.226;2022-09-03T02:20:04;20.40;99.90
20714;DHT22;10518;50.742;4.226;2022-09-03T02:22:31;20.40;99.90
20714;DHT22;10518;50.742;4.226;2022-09-03T02:24:56;20.40;99.90
20714;DHT22;10518;50.742;4.226;2022-09-03T02:27:22;20.40;99.90
20714;DHT22;10518;50.742;4.226;2022-09-03T02:29:48;20.40;99.90
20714;DHT22;10518;50.742;4.226;2022-09-03T02:32:13;20.40;99.90
20714;DHT22;10518;50.742;4.226;2022-09-03T02:34:41;20.40;99.90
20714;DHT22;10518;50.742;4.226;2022-09-03T02:37:14;20.40;99.90
20714;DHT22;10518;50.742;4.226;2022-09-03T02:39:40;20.40;99.90
20714;DHT22;10518;50.742;4.226;2022-09-03T02:42:08;20.40;99.90
20714;DHT22;10518;50.742;4.226;2022-09-03T02:44:40;20.40;99.90
20714;DHT22;10518;50.742;4.226;2022-09-03T02:47:07;20.50;99.90
20714;DHT22;10518;50.742;4.226;2022-09-03T02:49:33;20.40;99.90
20714;DHT22;10518;50.742;4.226;2022-09-03T02:52:00;20.40;99.90
20714;DHT22;10518;50.742;4.226;2022-09-03T02:54:29;20.50;99.90
20714;DHT22;10518;50.742;4.226;2022-09-03T02:56:56;20.50;99.90
20714;DHT22;10518;50.742;4.226;2022-09-03T02:59:22;20.60;99.90
20714;DHT22;10518;50.742;4.226;2022-09-03T03:01:48;20.60;99.90
20714;DHT22;10518;50.742;4.226;2022-09-03T03:04:14;20.70;99.90
20714;DHT22;10518;50.742;4.226;2022-09-03T03:06:40;20.60;99.90
20714;DHT22;10518;50.742;4.226;2022-09-03T03:09:05;20.60;99.90
20714;DHT22;10518;50.742;4.226;2022-09-03T03:11:31;20.70;99.90
20714;DHT22;10518;50.742;4.226;2022-09-03T03:13:57;20.70;99.90
20714;DHT22;10518;50.742;4.226;2022-09-03T03:16:23;20.70;99.90
20714;DHT22;10518;50.742;4.226;2022-09-03T03:18:48;20.60;99.90
20714;DHT22;10518;50.742;4.226;2022-09-03T03:21:16;20.60;99.90
20714;DHT22;10518;50.742;4.226;2022-09-03T03:23:43;20.60;99.90
20714;DHT22;10518;50.742;4.226;2022-09-03T03:26:12;20.60;99.90
20714;DHT22;10518;50.742;4.226;2022-09-03T03:28:38;20.60;99.90
20714;DHT22;10518;50.742;4.226;2022-09-03T03:31:13;20.60;99.90
20714;DHT22;10518;50.742;4.226;2022-09-03T03:33:39;20.60;99.90
20714;DHT22;10518;50.742;4.226;2022-09-03T03:36:08;20.60;99.90
20714;DHT22;10518;50.742;4.226;2022-09-03T03:38:35;20.60;99.90
20714;DHT22;10518;50.742;4.226;2022-09-03T03:41:16;20.60;99.90
20714;DHT22;10518;50.742;4.226;2022-09-03T03:43:43;20.50;99.90
20714;DHT22;10518;50.742;4.226;2022-09-03T03:46:09;20.50;99.90
20714;DHT22;10518;50.742;4.226;2022-09-03T03:48:36;20.50;99.90
20714;DHT22;10518;50.742;4.226;2022-09-03T03:51:04;20.50;99.90
20714;DHT22;10518;50.742;4.226;2022-09-03T03:53:31;20.50;99.90
20714;DHT22;10518;50.742;4.226;2022-09-03T03:55:59;20.50;99.90
20714;DHT22;10518;50.742;4.226;2022-09-03T03:58:27;20.40;99.90
20714;DHT22;10518;50.742;4.226;2022-09-03T04:00:53;20.40;99.90
20714;DHT22;10518;50.742;4.226;2022-09-03T04:03:19;20.40;99.90
20714;DHT22;10518;50.742;4.226;2022-09-03T04:05:58;20.50;99.90
20714;DHT22;10518;50.742;4.226;2022-09-03T04:08:25;20.50;99.90
20714;DHT22;10518;50.742;4.226;2022-09-03T04:10:51;20.40;99.90
20714;DHT22;10518;50.742;4.226;2022-09-03T04:13:17;20.40;99.90
20714;DHT22;10518;50.742;4.226;2022-09-03T04:15:43;20.40;99.90
20714;DHT22;10518;50.742;4.226;2022-09-03T04:18:09;20.40;99.90
20714;DHT22;10518;50.742;4.226;2022-09-03T04:20:35;20.40;99.90
20714;DHT22;10518;50.742;4.226;2022-09-03T04:23:01;20.30;99.90
20714;DHT22;10518;50.742;4.226;2022-09-03T04:25:27;20.20;99.90
20714;DHT22;10518;50.742;4.226;2022-09-03T04:27:53;20.20;99.90
20714;DHT22;10518;50.742;4.226;2022-09-03T04:30:19;20.20;99.90
20714;DHT22;10518;50.742;4.226;2022-09-03T04:32:49;20.10;99.90
20714;DHT22;10518;50.742;4.226;2022-09-03T04:35:24;20.10;99.90
20714;DHT22;10518;50.742;4.226;2022-09-03T04:37:51;20.10;99.90
20714;DHT22;10518;50.742;4.226;2022-09-03T04:40:19;20.00;99.90
20714;DHT22;10518;50.742;4.226;2022-09-03T04:42:45;20.00;99.90
20714;DHT22;10518;50.742;4.226;2022-09-03T04:45:10;19.90;99.90
20714;DHT22;10518;50.742;4.226;2022-09-03T04:47:36;19.90;99.90
20714;DHT22;10518;50.742;4.226;2022-09-03T04:50:04;20.00;99.90
20714;DHT22;10518;50.742;4.226;2022-09-03T04:52:30;20.00;99.90
20714;DHT22;10518;50.742;4.226;2022-09-03T04:54:57;20.00;99.90
20714;DHT22;10518;50.742;4.226;2022-09-03T04:57:23;20.10;99.90
20714;DHT22;10518;50.742;4.226;2022-09-03T04:59:48;20.20;99.90
20714;DHT22;10518;50.742;4.226;2022-09-03T05:02:14;20.30;99.90
20714;DHT22;10518;50.742;4.226;2022-09-03T05:04:40;20.30;99.90
20714;DHT22;10518;50.742;4.226;2022-09-03T05:07:06;20.30;99.90
20714;DHT22;10518;50.742;4.226;2022-09-03T05:09:31;20.30;99.90
20714;DHT22;10518;50.742;4.226;2022-09-03T05:11:57;20.30;99.90
20714;DHT22;10518;50.742;4.226;2022-09-03T05:14:23;20.30;99.90
20714;DHT22;10518;50.742;4.226;2022-09-03T05:16:48;20.30;99.90
20714;DHT22;10518;50.742;4.226;2022-09-03T05:19:14;20.20;99.90
20714;DHT22;10518;50.742;4.226;2022-09-03T05:21:41;20.20;99.90
20714;DHT22;10518;50.742;4.226;2022-09-03T05:24:07;20.20;99.90
20714;DHT22;10518;50.742;4.226;2022-09-03T05:26:37;20.20;99.90
20714;DHT22;10518;50.742;4.226;2022-09-03T05:29:04;20.30;99.90
20714;DHT22;10518;50.742;4.226;2022-09-03T05:31:33;20.30;99.90
20714;DHT22;10518;50.742;4.226;2022-09-03T05:34:02;20.30;99.90
20714;DHT22;10518;50.742;4.226;2022-09-03T05:36:31;20.30;99.90
20714;DHT22;10518;50.742;4.226;2022-09-03T05:38:57;20.30;99.90
20714;DHT22;10518;50.742;4.226;2022-09-03T05:41:23;20.30;99.90
20714;DHT22;10518;50.742;4.226;2022-09-03T05:43:51;20.30;99.90
20714;DHT22;10518;50.742;4.226;2022-09-03T05:46:22;20.30;99.90
20714;DHT22;10518;50.742;4.226;2022-09-03T05:48:50;20.40;99.90
20714;DHT22;10518;50.742;4.226;2022-09-03T05:51:17;20.40;99.90
20714;DHT22;10518;50.742;4.226;2022-09-03T05:53:45;20.30;99.90
20714;DHT22;10518;50.742;4.226;2022-09-03T05:56:16;20.30;99.90
20714;DHT22;10518;50.742;4.226;2022-09-03T05:58:48;20.30;99.90
20714;DHT22;10518;50.742;4.226;2022-09-03T06:03:47;20.30;99.90
20714;DHT22;10518;50.742;4.226;2022-09-03T06:06:13;20.30;99.90
20714;DHT22;10518;50.742;4.226;2022-09-03T06:08:41;20.40;99.90
20714;DHT22;10518;50.742;4.226;2022-09-03T06:11:07;20.40;99.90
20714;DHT22;10518;50.742;4.226;2022-09-03T06:13:34;20.40;99.90
20714;DHT22;10518;50.742;4.226;2022-09-03T06:16:02;20.40;99.90
20714;DHT22;10518;50.742;4.226;2022-09-03T06:18:28;20.40;99.90
20714;DHT22;10518;50.742;4.226;2022-09-03T06:21:02;20.50;99.90
20714;DHT22;10518;50.742;4.226;2022-09-03T06:23:29;20.50;99.90
20714;DHT22;10518;50.742;4.226;2022-09-03T06:26:07;20.60;99.90
20714;DHT22;10518;50.742;4.226;2022-09-03T06:28:34;20.60;99.90
20714;DHT22;10518;50.742;4.226;2022-09-03T06:31:02;20.70;99.90
20714;DHT22;10518;50.742;4.226;2022-09-03T06:33:33;20.70;99.90
20714;DHT22;10518;50.742;4.226;2022-09-03T06:36:00;20.90;99.90
20714;DHT22;10518;50.742;4.226;2022-09-03T06:38:29;20.90;99.90
20714;DHT22;10518;50.742;4.226;2022-09-03T06:40:58;20.90;99.90
20714;DHT22;10518;50.742;4.226;2022-09-03T06:43:31;21.10;99.90
20714;DHT22;10518;50.742;4.226;2022-09-03T06:46:05;21.10;99.90
20714;DHT22;10518;50.742;4.226;2022-09-03T06:48:33;21.20;99.90
20714;DHT22;10518;50.742;4.226;2022-09-03T06:51:01;21.20;99.90
20714;DHT22;10518;50.742;4.226;2022-09-03T06:53:29;21.10;99.90
20714;DHT22;10518;50.742;4.226;2022-09-03T06:56:00;21.00;99.90
20714;DHT22;10518;50.742;4.226;2022-09-03T06:58:34;21.00;99.90
20714;DHT22;10518;50.742;4.226;2022-09-03T07:01:10;21.00;99.90
20714;DHT22;10518;50.742;4.226;2022-09-03T07:03:38;21.10;99.90
20714;DHT22;10518;50.742;4.226;2022-09-03T07:06:09;21.20;99.90
20714;DHT22;10518;50.742;4.226;2022-09-03T07:08:35;21.20;99.90
20714;DHT22;10518;50.742;4.226;2022-09-03T07:11:03;21.20;99.90
20714;DHT22;10518;50.742;4.226;2022-09-03T07:13:30;21.40;99.90
20714;DHT22;10518;50.742;4.226;2022-09-03T07:16:03;21.40;99.90
20714;DHT22;10518;50.742;4.226;2022-09-03T07:18:29;21.50;99.90
20714;DHT22;10518;50.742;4.226;2022-09-03T07:21:00;21.50;99.90
20714;DHT22;10518;50.742;4.226;2022-09-03T07:23:27;21.50;99.90
20714;DHT22;10518;50.742;4.226;2022-09-03T07:25:55;21.50;99.90
20714;DHT22;10518;50.742;4.226;2022-09-03T07:28:21;21.60;99.90
20714;DHT22;10518;50.742;4.226;2022-09-03T07:30:48;21.70;99.90
20714;DHT22;10518;50.742;4.226;2022-09-03T07:33:14;21.80;99.90
20714;DHT22;10518;50.742;4.226;2022-09-03T07:35:39;21.80;99.90
20714;DHT22;10518;50.742;4.226;2022-09-03T07:38:05;21.80;99.90
20714;DHT22;10518;50.742;4.226;2022-09-03T07:40:30;21.80;99.90
20714;DHT22;10518;50.742;4.226;2022-09-03T07:42:57;21.80;99.90
20714;DHT22;10518;50.742;4.226;2022-09-03T07:45:29;21.70;99.90
20714;DHT22;10518;50.742;4.226;2022-09-03T07:47:55;21.80;99.90
20714;DHT22;10518;50.742;4.226;2022-09-03T07:50:21;21.80;99.90
20714;DHT22;10518;50.742;4.226;2022-09-03T07:52:47;21.80;99.90
20714;DHT22;10518;50.742;4.226;2022-09-03T07:55:13;21.70;99.90
20714;DHT22;10518;50.742;4.226;2022-09-03T07:57:39;21.70;99.90
20714;DHT22;10518;50.742;4.226;2022-09-03T08:00:06;21.70;99.90
20714;DHT22;10518;50.742;4.226;2022-09-03T08:02:35;21.70;99.90
20714;DHT22;10518;50.742;4.226;2022-09-03T08:05:00;21.60;99.90
20714;DHT22;10518;50.742;4.226;2022-09-03T08:07:28;21.50;99.90
20714;DHT22;10518;50.742;4.226;2022-09-03T08:09:55;21.40;99.90
20714;DHT22;10518;50.742;4.226;2022-09-03T08:12:20;21.40;99.90
20714;DHT22;10518;50.742;4.226;2022-09-03T08:14:46;21.40;99.90
20714;DHT22;10518;50.742;4.226;2022-09-03T08:17:12;21.50;99.90
20714;DHT22;10518;50.742;4.226;2022-09-03T08:19:38;21.60;99.90
20714;DHT22;10518;50.742;4.226;2022-09-03T08:22:05;21.80;99.90
20714;DHT22;10518;50.742;4.226;2022-09-03T08:24:30;21.90;99.90
20714;DHT22;10518;50.742;4.226;2022-09-03T08:26:58;22.00;99.90
20714;DHT22;10518;50.742;4.226;2022-09-03T08:29:23;22.10;99.90
20714;DHT22;10518;50.742;4.226;2022-09-03T08:31:49;22.20;99.90
20714;DHT22;10518;50.742;4.226;2022-09-03T08:34:15;22.40;99.90
20714;DHT22;10518;50.742;4.226;2022-09-03T08:36:41;22.60;99.90
20714;DHT22;10518;50.742;4.226;2022-09-03T08:39:09;22.70;99.90
20714;DHT22;10518;50.742;4.226;2022-09-03T08:55:01;23.60;99.90
20714;DHT22;10518;50.742;4.226;2022-09-03T08:57:31;23.80;99.90
20714;DHT22;10518;50.742;4.226;2022-09-03T09:00:01;24.10;99.90
20714;DHT22;10518;50.742;4.226;2022-09-03T09:02:47;24.40;99.90
20714;DHT22;10518;50.742;4.226;2022-09-03T09:08:28;24.70;99.90
20714;DHT22;10518;50.742;4.226;2022-09-03T09:11:07;24.80;99.90
20714;DHT22;10518;50.742;4.226;2022-09-03T09:13:47;24.90;99.90
20714;DHT22;10518;50.742;4.226;2022-09-03T09:21:56;25.20;99.90
20714;DHT22;10518;50.742;4.226;2022-09-03T09:24:25;25.20;99.90
20714;DHT22;10518;50.742;4.226;2022-09-03T09:26:58;25.20;99.90
20714;DHT22;10518;50.742;4.226;2022-09-03T09:29:26;25.40;99.90
20714;DHT22;10518;50.742;4.226;2022-09-03T09:31:54;25.70;99.90
20714;DHT22;10518;50.742;4.226;2022-09-03T09:34:20;25.80;99.90
20714;DHT22;10518;50.742;4.226;2022-09-03T09:36:48;25.90;99.90
20714;DHT22;10518;50.742;4.226;2022-09-03T09:39:14;25.90;99.90
20714;DHT22;10518;50.742;4.226;2022-09-03T09:41:41;26.20;99.90
20714;DHT22;10518;50.742;4.226;2022-09-03T09:44:07;26.20;99.90
20714;DHT22;10518;50.742;4.226;2022-09-03T09:46:39;26.20;99.90
20714;DHT22;10518;50.742;4.226;2022-09-03T09:49:42;26.10;99.90
20714;DHT22;10518;50.742;4.226;2022-09-03T09:52:15;26.30;99.90
20714;DHT22;10518;50.742;4.226;2022-09-03T09:54:43;26.10;99.90
20714;DHT22;10518;50.742;4.226;2022-09-03T09:57:16;25.90;99.90
20714;DHT22;10518;50.742;4.226;2022-09-03T09:59:43;25.60;99.90
20714;DHT22;10518;50.742;4.226;2022-09-03T10:02:23;25.50;99.90
20714;DHT22;10518;50.742;4.226;2022-09-03T10:04:56;25.90;99.90
20714;DHT22;10518;50.742;4.226;2022-09-03T10:07:30;26.20;99.90
20714;DHT22;10518;50.742;4.226;2022-09-03T10:20:43;26.80;99.90
20714;DHT22;10518;50.742;4.226;2022-09-03T10:23:22;27.10;99.90
20714;DHT22;10518;50.742;4.226;2022-09-03T10:28:32;27.20;99.90
20714;DHT22;10518;50.742;4.226;2022-09-03T10:36:33;26.80;99.90
20714;DHT22;10518;50.742;4.226;2022-09-03T10:39:09;27.00;99.90
20714;DHT22;10518;50.742;4.226;2022-09-03T10:44:58;27.20;99.90
20714;DHT22;10518;50.742;4.226;2022-09-03T10:50:14;27.50;99.90
20714;DHT22;10518;50.742;4.226;2022-09-03T11:01:02;27.40;99.90
20714;DHT22;10518;50.742;4.226;2022-09-03T11:03:41;27.20;99.90
20714;DHT22;10518;50.742;4.226;2022-09-03T11:09:30;27.40;99.90
20714;DHT22;10518;50.742;4.226;2022-09-03T11:12:33;27.70;99.90
20714;DHT22;10518;50.742;4.226;2022-09-03T11:15:05;27.70;99.90
20714;DHT22;10518;50.742;4.226;2022-09-03T11:20:18;27.60;99.90
20714;DHT22;10518;50.742;4.226;2022-09-03T11:22:47;27.50;99.90
20714;DHT22;10518;50.742;4.226;2022-09-03T11:25:16;27.70;99.90
20714;DHT22;10518;50.742;4.226;2022-09-03T11:27:59;27.80;99.90
20714;DHT22;10518;50.742;4.226;2022-09-03T11:33:32;27.70;99.90
20714;DHT22;10518;50.742;4.226;2022-09-03T11:36:01;27.50;99.90
20714;DHT22;10518;50.742;4.226;2022-09-03T11:38:30;27.70;99.90
20714;DHT22;10518;50.742;4.226;2022-09-03T11:41:23;27.40;99.90
20714;DHT22;10518;50.742;4.226;2022-09-03T11:43:50;27.50;99.90
20714;DHT22;10518;50.742;4.226;2022-09-03T11:49:11;27.50;99.90
20714;DHT22;10518;50.742;4.226;2022-09-03T11:51:39;27.80;99.90
20714;DHT22;10518;50.742;4.226;2022-09-03T11:54:25;27.60;99.90
20714;DHT22;10518;50.742;4.226;2022-09-03T11:57:02;27.50;99.90
20714;DHT22;10518;50.742;4.226;2022-09-03T11:59:28;27.90;99.90
20714;DHT22;10518;50.742;4.226;2022-09-03T12:13:11;28.20;99.90
20714;DHT22;10518;50.742;4.226;2022-09-03T12:16:22;27.80;99.90
20714;DHT22;10518;50.742;4.226;2022-09-03T12:18:54;27.90;99.90
20714;DHT22;10518;50.742;4.226;2022-09-03T12:21:21;28.30;99.90
20714;DHT22;10518;50.742;4.226;2022-09-03T12:23:50;28.30;99.90
20714;DHT22;10518;50.742;4.226;2022-09-03T12:28:57;27.90;99.90
20714;DHT22;10518;50.742;4.226;2022-09-03T12:31:26;28.00;99.90
20714;DHT22;10518;50.742;4.226;2022-09-03T12:34:09;28.00;99.90
20714;DHT22;10518;50.742;4.226;2022-09-03T12:36:44;27.90;99.90
20714;DHT22;10518;50.742;4.226;2022-09-03T12:39:14;28.20;99.90
20714;DHT22;10518;50.742;4.226;2022-09-03T12:42:07;27.70;99.90
20714;DHT22;10518;50.742;4.226;2022-09-03T12:47:20;27.40;99.90
20714;DHT22;10518;50.742;4.226;2022-09-03T12:49:56;27.60;99.90
20714;DHT22;10518;50.742;4.226;2022-09-03T12:52:43;27.80;99.90
20714;DHT22;10518;50.742;4.226;2022-09-03T12:58:23;28.10;99.90
20714;DHT22;10518;50.742;4.226;2022-09-03T13:03:18;28.40;99.90
20714;DHT22;10518;50.742;4.226;2022-09-03T13:06:00;28.30;99.90
20714;DHT22;10518;50.742;4.226;2022-09-03T13:08:36;28.00;99.90
20714;DHT22;10518;50.742;4.226;2022-09-03T13:11:04;27.60;99.90
20714;DHT22;10518;50.742;4.226;2022-09-03T13:13:32;27.30;99.90
20714;DHT22;10518;50.742;4.226;2022-09-03T13:26:56;27.90;99.90
20714;DHT22;10518;50.742;4.226;2022-09-03T13:32:12;27.50;99.90
20714;DHT22;10518;50.742;4.226;2022-09-03T13:34:47;27.50;99.90
20714;DHT22;10518;50.742;4.226;2022-09-03T13:40:08;27.50;99.90
20714;DHT22;10518;50.742;4.226;2022-09-03T13:42:52;27.70;99.90
20714;DHT22;10518;50.742;4.226;2022-09-03T13:45:28;27.80;99.90
20714;DHT22;10518;50.742;4.226;2022-09-03T13:48:06;28.10;99.90
20714;DHT22;10518;50.742;4.226;2022-09-03T13:51:08;27.80;99.90
20714;DHT22;10518;50.742;4.226;2022-09-03T13:53:41;27.60;99.90
20714;DHT22;10518;50.742;4.226;2022-09-03T13:59:08;27.20;99.90
20714;DHT22;10518;50.742;4.226;2022-09-03T14:19:16;27.60;99.90
20714;DHT22;10518;50.742;4.226;2022-09-03T14:21:54;27.60;99.90
20714;DHT22;10518;50.742;4.226;2022-09-03T14:24:42;27.80;99.90
20714;DHT22;10518;50.742;4.226;2022-09-03T14:27:09;27.90;99.90
20714;DHT22;10518;50.742;4.226;2022-09-03T14:29:36;28.00;99.90
20714;DHT22;10518;50.742;4.226;2022-09-03T14:35:12;27.70;99.90
20714;DHT22;10518;50.742;4.226;2022-09-03T14:40:45;27.70;99.90
20714;DHT22;10518;50.742;4.226;2022-09-03T15:12:58;28.00;99.90
20714;DHT22;10518;50.742;4.226;2022-09-03T15:18:25;28.10;99.90
20714;DHT22;10518;50.742;4.226;2022-09-03T15:21:00;28.00;99.90
20714;DHT22;10518;50.742;4.226;2022-09-03T15:29:43;27.80;99.90
20714;DHT22;10518;50.742;4.226;2022-09-03T15:35:07;27.60;99.90
20714;DHT22;10518;50.742;4.226;2022-09-03T15:40:09;27.60;99.90
20714;DHT22;10518;50.742;4.226;2022-09-03T15:42:41;27.70;99.90
20714;DHT22;10518;50.742;4.226;2022-09-03T15:48:21;27.80;99.90
20714;DHT22;10518;50.742;4.226;2022-09-03T15:53:44;27.90;99.90
20714;DHT22;10518;50.742;4.226;2022-09-03T15:56:25;28.10;99.90
20714;DHT22;10518;50.742;4.226;2022-09-03T15:59:04;28.00;99.90
20714;DHT22;10518;50.742;4.226;2022-09-03T16:01:53;27.80;99.90
20714;DHT22;10518;50.742;4.226;2022-09-03T16:10:10;27.00;99.90
20714;DHT22;10518;50.742;4.226;2022-09-03T16:15:32;26.60;99.90
20714;DHT22;10518;50.742;4.226;2022-09-03T16:21:07;26.40;99.90
20714;DHT22;10518;50.742;4.226;2022-09-03T16:23:46;26.30;99.90
20714;DHT22;10518;50.742;4.226;2022-09-03T16:29:16;26.30;99.90
20714;DHT22;10518;50.742;4.226;2022-09-03T16:34:44;26.30;99.90
20714;DHT22;10518;50.742;4.226;2022-09-03T16:40:21;26.10;99.90
20714;DHT22;10518;50.742;4.226;2022-09-03T16:45:55;26.20;99.90
20714;DHT22;10518;50.742;4.226;2022-09-03T16:48:56;26.10;99.90
20714;DHT22;10518;50.742;4.226;2022-09-03T17:05:43;26.00;99.90
20714;DHT22;10518;50.742;4.226;2022-09-03T17:08:49;26.30;99.90
20714;DHT22;10518;50.742;4.226;2022-09-03T17:14:32;26.60;99.90
20714;DHT22;10518;50.742;4.226;2022-09-03T17:19:55;26.10;99.90
20714;DHT22;10518;50.742;4.226;2022-09-03T17:23:08;25.80;99.90
20714;DHT22;10518;50.742;4.226;2022-09-03T17:25:48;25.80;99.90
20714;DHT22;10518;50.742;4.226;2022-09-03T17:42:59;25.40;99.90
20714;DHT22;10518;50.742;4.226;2022-09-03T17:54:13;25.20;99.90
20714;DHT22;10518;50.742;4.226;2022-09-03T17:59:41;24.90;99.90
20714;DHT22;10518;50.742;4.226;2022-09-03T18:13:20;24.80;99.90
20714;DHT22;10518;50.742;4.226;2022-09-03T18:16:01;24.70;99.90
20714;DHT22;10518;50.742;4.226;2022-09-03T18:18:32;24.60;99.90
20714;DHT22;10518;50.742;4.226;2022-09-03T18:21:02;24.40;99.90
20714;DHT22;10518;50.742;4.226;2022-09-03T18:24:05;24.20;99.90
20714;DHT22;10518;50.742;4.226;2022-09-03T18:26:59;24.10;99.90
20714;DHT22;10518;50.742;4.226;2022-09-03T18:29:53;24.00;99.90
20714;DHT22;10518;50.742;4.226;2022-09-03T18:32:39;24.00;99.90
20714;DHT22;10518;50.742;4.226;2022-09-03T18:35:24;24.10;99.90
20714;DHT22;10518;50.742;4.226;2022-09-03T18:38:10;24.10;99.90
20714;DHT22;10518;50.742;4.226;2022-09-03T18:50:25;24.10;99.90
20714;DHT22;10518;50.742;4.226;2022-09-03T18:56:19;24.00;99.90
20714;DHT22;10518;50.742;4.226;2022-09-03T18:59:29;23.90;99.90
20714;DHT22;10518;50.742;4.226;2022-09-03T19:18:09;23.40;99.90
20714;DHT22;10518;50.742;4.226;2022-09-03T19:24:02;23.30;99.90
20714;DHT22;10518;50.742;4.226;2022-09-03T19:27:03;23.20;99.90
20714;DHT22;10518;50.742;4.226;2022-09-03T19:30:19;23.20;99.90
20714;DHT22;10518;50.742;4.226;2022-09-03T19:36:10;23.10;99.90
20714;DHT22;10518;50.742;4.226;2022-09-03T19:42:25;23.00;99.90
20714;DHT22;10518;50.742;4.226;2022-09-03T19:51:26;22.80;99.90
20714;DHT22;10518;50.742;4.226;2022-09-03T19:54:12;22.80;99.90
20714;DHT22;10518;50.742;4.226;2022-09-03T19:56:57;22.70;99.90
20714;DHT22;10518;50.742;4.226;2022-09-03T19:59:44;22.70;99.90
20714;DHT22;10518;50.742;4.226;2022-09-03T20:02:32;22.70;99.90
20714;DHT22;10518;50.742;4.226;2022-09-03T20:05:19;22.70;99.90
20714;DHT22;10518;50.742;4.226;2022-09-03T20:08:05;22.60;99.90
20714;DHT22;10518;50.742;4.226;2022-09-03T20:10:52;22.60;99.90
20714;DHT22;10518;50.742;4.226;2022-09-03T20:13:20;22.60;99.90
20714;DHT22;10518;50.742;4.226;2022-09-03T20:46:16;22.10;99.90
20714;DHT22;10518;50.742;4.226;2022-09-03T20:51:24;22.00;99.90
20714;DHT22;10518;50.742;4.226;2022-09-03T21:00:10;21.90;99.90
20714;DHT22;10518;50.742;4.226;2022-09-03T21:10:56;21.70;99.90
20714;DHT22;10518;50.742;4.226;2022-09-03T21:13:39;21.60;99.90
20714;DHT22;10518;50.742;4.226;2022-09-03T21:27:16;21.40;99.90
20714;DHT22;10518;50.742;4.226;2022-09-03T21:30:07;21.40;99.90
20714;DHT22;10518;50.742;4.226;2022-09-03T21:35:27;21.30;99.90
20714;DHT22;10518;50.742;4.226;2022-09-03T21:38:10;21.20;99.90
20714;DHT22;10518;50.742;4.226;2022-09-03T21:40:46;21.30;99.90
20714;DHT22;10518;50.742;4.226;2022-09-03T21:43:18;21.20;99.90
20714;DHT22;10518;50.742;4.226;2022-09-03T21:46:28;21.20;99.90
20714;DHT22;10518;50.742;4.226;2022-09-03T21:48:55;21.20;99.90
20714;DHT22;10518;50.742;4.226;2022-09-03T21:51:41;21.20;99.90
20714;DHT22;10518;50.742;4.226;2022-09-03T21:54:12;21.10;99.90
20714;DHT22;10518;50.742;4.226;2022-09-03T22:02:28;21.10;99.90
20714;DHT22;10518;50.742;4.226;2022-09-03T22:04:55;21.10;99.90
20714;DHT22;10518;50.742;4.226;2022-09-03T22:15:11;21.00;99.90
20714;DHT22;10518;50.742;4.226;2022-09-03T22:17:47;20.90;99.90
20714;DHT22;10518;50.742;4.226;2022-09-03T22:20:16;20.90;99.90
20714;DHT22;10518;50.742;4.226;2022-09-03T22:22:59;20.90;99.90
20714;DHT22;10518;50.742;4.226;2022-09-03T22:25:32;20.90;99.90
20714;DHT22;10518;50.742;4.226;2022-09-03T22:28:14;20.90;99.90
20714;DHT22;10518;50.742;4.226;2022-09-03T22:36:11;20.80;99.90
20714;DHT22;10518;50.742;4.226;2022-09-03T22:49:57;20.70;99.90
20714;DHT22;10518;50.742;4.226;2022-09-03T22:52:43;20.70;99.90
20714;DHT22;10518;50.742;4.226;2022-09-03T22:55:16;20.70;99.90
20714;DHT22;10518;50.742;4.226;2022-09-03T22:58:07;20.70;99.90
20714;DHT22;10518;50.742;4.226;2022-09-03T23:00:49;20.60;99.90
20714;DHT22;10518;50.742;4.226;2022-09-03T23:03:24;20.60;99.90
20714;DHT22;10518;50.742;4.226;2022-09-03T23:05:58;20.50;99.90
20714;DHT22;10518;50.742;4.226;2022-09-03T23:08:38;20.50;99.90
20714;DHT22;10518;50.742;4.226;2022-09-03T23:11:23;20.50;99.90
20714;DHT22;10518;50.742;4.226;2022-09-03T23:14:05;20.30;99.90
20714;DHT22;10518;50.742;4.226;2022-09-03T23:22:26;20.30;99.90
20714;DHT22;10518;50.742;4.226;2022-09-03T23:25:18;20.30;99.90
20714;DHT22;10518;50.742;4.226;2022-09-03T23:28:36;20.20;99.90
20714;DHT22;10518;50.742;4.226;2022-09-03T23:30:36;20.20;99.90
20714;DHT22;10518;50.742;4.226;2022-09-03T23:33:02;20.20;99.90